North Haven, ME (04853)

10:53 PM EDT on September 01, 2014 (GMT -0400)
South Shore Road | Change Station
CLOSE
Current Station
Personal Weather Station
Location: North Haven, ME
Elevation: 121 ft
Nearby Weather Stations

Elev 121 ft 44.16 °N, 68.83 °W | Updated 0 second ago

Mostly Cloudy
Mostly Cloudy
62.6 °F
Feels Like 62.6 °F
N
0.0
Wind Variable Wind from ESE
Gusts 1.0 mph

Today
High -- | Low -- °F
--% Chance of Precip.
Yesterday
High -- | Low -- °F
Precip. -- in
5:58 AM 7:11 PM
Waxing Crescent, 46% visible
Pressure 29.94 in
Visibility 0.2 miles
Clouds Overcast 100 ft
Dew Point 62 °F
Humidity 98%
Rainfall 0.11 in
Snow Depth Not available.
UV 0 out of 12
Pollen 4.30 out of 12
Ozone Good
Flu Activity Not available.
METAR KRKD 020235Z AUTO 00000KT M1/4SM OVC001 17/17 A2994 RMK AO1

More Conditions Fewer Conditions

Pressure 29.94 in
Visibility 0.2 miles
Clouds Overcast 100 ft
Dew Point 62 °F
Humidity 98%
Rainfall 0.11 in
Snow Depth Not available.
UV 0 out of 12
Pollen 4.30 out of 12
Ozone Good
Flu Activity Not available.
METAR KRKD 020235Z AUTO 00000KT M1/4SM OVC001 17/17 A2994 RMK AO1

More Conditions Fewer Conditions

10-Day Weather Forecast

Almanac

Astronomy

Sep. 01, 2014 Rise Set
Actual Time 5:58 AM EDT 7:11 PM EDT
Civil Twilight 5:28 AM EDT 7:41 PM EDT
Nautical Twilight 4:52 AM EDT 8:17 PM EDT
Astronomical Twilight 4:14 AM EDT 8:54 PM EDT
Moon 12:55 PM EDT (9/1) 10:55 PM EDT (9/1)
Length of Visible Light 14h 12m
Length of Day
13h 13m
Tomorrow will be 2m 57s shorter.
Waxing Crescent, 46% of the Moon is Illuminated
Today
Waxing Crescent
Sep 2
First Quarter
Sep 8
Full
Sep 15
Last Quarter
Sep 24
New

Today's Extremes

State Highs State Lows

Community

WunderPhotos

Upload Photos

1,749,513 photos uploaded!

Nearby

Air Quality

  Air Quality AQ Index Pollutant
Yesterday Good
OZONE
Current Good
OZONE
Monday Good
OZONE
Monday Good
PM2.5
Tuesday Good
OZONE
Tuesday Good
PM2.5
Wednesday Good
OZONE
Wednesday Good
PM2.5

Snow Depth

Station Depth Elevation
No new snow has been reported.

Earthquake Activity

City Distance Mag. Time & Date
No recent earthquake activity has been reported nearby.
Minimum magnitude displayed is 2.5.

Coastal Water Temperatures

Place Temperature
Bar Harbor, ME 57.9 °F
Portland, ME 61.0 °F

Nearby Weather Stations